• Join FlightAware (Why Join?)
  • Login
  • US Flag 
12:07AM EDT


 

Airport Tracker/Info


-or-


 

Live Flight TrackerFlight Track Log ✈ DAL2028 ✈ 13-Jun-2013 ✈ KMCO - KDTW

Flight Track Log - Related Links

Times and Time Zones

All times are in EDT time to prevent confusion due to time zone crossing. See the DAL2028 flight status page for this flight to view local times or setup timezone preferences in your user account.

Time Position Orientation Groundspeed Altitude Reporting Facility
EDT Latitude Longitude Course Direction KTS MPH feet Rate Location/Type
04:54PM 28.4000 -81.3000 270° West 167 192 900  Level Orlando TRACON
04:55PM 28.3500 -81.3667 230° Southwest 250 288 4,100 2,760 Climbing Orlando TRACON
04:56PM 28.4167 -81.6966 270° West  Level FlightAware Approximate
04:56PM 28.3333 -81.4500 257° West 255 293 7,800  Level Orlando TRACON
04:57PM 28.4167 -81.8288 270° West  Level FlightAware Approximate
04:57PM 28.3333 -81.5167 270° West 285 328 9,800  Level Orlando TRACON
04:58PM 28.4167 -81.9610 270° West  Level FlightAware Approximate
04:58PM 28.3333 -81.6167 270° West 328 377 12,100  Level Orlando TRACON
04:59PM 28.4167 -82.0932 270° West  Level FlightAware Approximate
05:00PM 28.3644 -81.8003 281° West 356 410 15,700  Level Jacksonville Center
05:01PM 28.3944 -81.9156 287° West 361 415 18,400 2,460 Climbing Jacksonville Center
05:02PM 28.4206 -82.0333 284° West 379 436 20,700 2,040 Climbing Jacksonville Center
05:03PM 28.4294 -82.1608 275° West 393 452 22,500 1,980 Climbing Jacksonville Center
05:04PM 28.4281 -82.2906 269° West 405 466 24,700 1,740 Climbing Jacksonville Center
05:05PM 28.4100 -82.4206 261° West 415 478 26,000 840 Climbing Jacksonville Center
05:06PM 28.4061 -82.5550 268° West 426 490 26,400 540 Climbing Jacksonville Center
05:07PM 28.4981 -82.6397 321° Northwest 379 436 27,100 660 Climbing Jacksonville Center
05:08PM 28.6194 -82.6892 340° North 404 465 27,800 1,200 Climbing Jacksonville Center
05:09PM 28.7406 -82.7458 338° Northwest 433 498 29,500 1,680 Climbing Jacksonville Center
05:11PM 28.9367 -82.9447 318° Northwest 466 536 32,900 1,620 Climbing Jacksonville Center
05:12PM 29.0325 -83.0469 317° Northwest 466 536 34,400 1,500 Climbing Jacksonville Center
05:13PM 29.1244 -83.1444 317° Northwest 461 531 35,900 780 Climbing Jacksonville Center
05:14PM 29.2181 -83.2422 318° Northwest 461 531 36,000  Climbing Jacksonville Center
05:15PM 29.3117 -83.3428 317° Northwest 456 525 36,000  Level Jacksonville Center
05:16PM 29.4156 -83.4506 318° Northwest 451 519 36,000  Level Jacksonville Center
05:17PM 29.5133 -83.5511 318° Northwest 456 525 36,000  Level Jacksonville Center
05:18PM 29.6086 -83.6497 318° Northwest 456 525 36,000 180 Level Jacksonville Center
05:19PM 29.7083 -83.7464 320° Northwest 467 537 36,400 600 Climbing Jacksonville Center
05:20PM 29.8292 -83.7833 345° North 446 513 37,300 780 Climbing Jacksonville Center
05:21PM 29.9564 -83.7989 354° North 441 507 38,000 300 Climbing Jacksonville Center
05:22PM 30.0814 -83.8217 351° North 452 520 38,000  Level Jacksonville Center
05:23PM 30.2108 -83.8419 352° North 452 520 38,000  Level Jacksonville Center
05:24PM 30.3339 -83.8600 353° North 452 520 38,000  Level Jacksonville Center
05:25PM 30.4569 -83.8831 351° North 452 520 38,000  Level Jacksonville Center
05:26PM 30.5736 -83.9011 352° North 446 513 38,000  Level Jacksonville Center
05:27PM 30.6925 -83.9217 352° North 428 493 38,000  Level Jacksonville Center
05:28PM 30.8133 -83.9425 352° North 428 493 38,000  Level Jacksonville Center
05:29PM 30.9364 -83.9631 352° North 428 493 38,000  Level Jacksonville Center
05:30PM 31.0572 -83.9814 353° North 433 498 38,000  Level Jacksonville Center
05:31PM 31.1825 -84.0022 352° North 433 498 38,000  Level Jacksonville Center
05:33PM 31.4628 -84.0533 351° North 459 528 38,000  Level Atlanta Center
05:34PM 31.5900 -84.0756 352° North 459 528 38,000  Level Atlanta Center
05:35PM 31.7153 -84.0975 352° North 459 528 38,000  Level Atlanta Center
05:36PM 31.8383 -84.1292 348° North 454 522 38,000  Level Atlanta Center
05:37PM 31.9594 -84.1931 336° Northwest 434 499 38,000  Level Atlanta Center
05:38PM 32.0700 -84.2594 333° Northwest 434 499 38,000  Level Atlanta Center
05:39PM 32.1806 -84.3211 335° Northwest 439 505 38,000  Level Atlanta Center
05:40PM 32.2867 -84.3828 334° Northwest 439 505 38,000  Level Atlanta Center
05:41PM 32.3950 -84.4447 334° Northwest 428 493 38,000  Level Atlanta Center
05:42PM 32.5014 -84.5042 335° Northwest 428 493 38,000  Level Atlanta Center
05:43PM 32.6097 -84.5689 333° Northwest 428 493 38,000  Level Atlanta Center
05:44PM 32.7158 -84.6289 335° Northwest 428 493 38,000  Level Atlanta Center
05:45PM 32.8031 -84.7036 324° Northwest 428 493 38,000  Level Atlanta Center
05:46PM 32.8944 -84.8008 318° Northwest 433 498 38,000  Level Atlanta Center
05:47PM 32.9856 -84.8958 319° Northwest 433 498 38,000  Level Atlanta Center
05:48PM 33.0767 -84.9908 319° Northwest 441 507 38,000  Level Atlanta Center
05:49PM 33.1783 -85.0911 320° Northwest 435 501 38,000  Level Atlanta Center
05:50PM 33.2692 -85.1767 322° Northwest 428 493 38,000  Level Atlanta Center
05:51PM 33.3622 -85.2650 322° Northwest 428 493 38,000  Level Atlanta Center
05:52PM 33.4553 -85.3536 322° Northwest 428 493 38,000  Level Atlanta Center
05:53PM 33.5503 -85.4422 322° Northwest 428 493 38,000  Level Atlanta Center
05:54PM 33.6433 -85.5311 322° Northwest 428 493 38,000  Level Atlanta Center
05:55PM 33.7361 -85.6250 320° Northwest 428 493 38,000  Level Atlanta Center
05:56PM 33.8183 -85.7092 320° Northwest 428 493 38,000  Level Atlanta Center
05:57PM 33.9047 -85.8033 318° Northwest 420 483 38,000  Level Atlanta Center
05:58PM 33.9911 -85.8903 320° Northwest 414 476 38,000  Level Atlanta Center
05:59PM 34.0753 -85.9825 318° Northwest 414 476 38,000 180 Level Atlanta Center
06:00PM 34.1553 -86.0772 316° Northwest 414 476 38,400 480 Climbing Atlanta Center
06:01PM 34.2328 -86.1744 314° West 403 464 39,000 300 Climbing Atlanta Center
06:02PM 34.3083 -86.2769 312° West 403 464 39,000  Level Atlanta Center
06:03PM 34.3919 -86.3747 316° Northwest 403 464 39,000  Level Atlanta Center
06:04PM 34.5008 -86.4686 325° Northwest 425 489 39,000  Level Atlanta Center
06:05PM 34.6194 -86.4897 352° North 416 479 39,000  Level Atlanta Center
06:06PM 34.7406 -86.4856 North 416 479 39,000  Level Atlanta Center
06:07PM 34.8636 -86.4842 North 425 489 39,000  Level Atlanta Center
06:08PM 34.9758 -86.4822 North 441 507 39,000  Level Memphis Center
06:09PM 35.0867 -86.4822 360° North 425 489 39,000  Level Memphis Center
06:10PM 35.2033 -86.4844 359° North 419 482 39,000  Level Memphis Center
06:11PM 35.3242 -86.4814 North 430 495 39,000 -720 Level Memphis Center
06:12PM 35.4494 -86.4781 North 430 495 37,600 -1,020 Descending Memphis Center
06:13PM 35.5722 -86.4747 North 446 513 37,000 -300 Descending Memphis Center
06:14PM 35.6931 -86.4717 North 436 502 37,000  Level Memphis Center
06:15PM 35.8119 -86.4686 North 436 502 37,000  Level Memphis Center
06:16PM 35.9389 -86.4653 North 441 507 37,000  Level Memphis Center
06:17PM 36.0619 -86.4644 360° North 441 507 37,000  Level Memphis Center
06:18PM 36.1828 -86.4586 North 436 502 37,000  Level Memphis Center
06:19PM 36.3036 -86.4556 North 436 502 37,000  Level Memphis Center
06:20PM 36.4244 -86.4522 North 436 502 37,000  Level Memphis Center
06:21PM 36.5450 -86.4464 North 436 502 37,000  Level Memphis Center
06:22PM 36.6639 -86.4458 360° North 430 495 37,000  Level Memphis Center
06:24PM 36.9181 -86.4406 North 421 484 37,000  Level Indianapolis Center
06:25PM 37.0558 -86.4356 North 420 483 37,000  Level Indianapolis Center
06:26PM 37.1739 -86.4331 North 421 484 37,000  Level Indianapolis Center
06:27PM 37.2931 -86.4311 North 423 487 37,000  Level Indianapolis Center
06:28PM 37.4125 -86.4264 North 424 488 37,000  Level Indianapolis Center
06:29PM 37.5314 -86.4239 North 422 486 37,000  Level Indianapolis Center
06:30PM 37.6503 -86.4217 North 423 487 37,000  Level Indianapolis Center
06:31PM 37.7694 -86.4181 North 423 487 37,000  Level Indianapolis Center
06:32PM 37.9075 -86.4169 360° North 424 488 37,000  Level Indianapolis Center
06:33PM 38.0244 -86.4139 North 421 484 37,000  Level Indianapolis Center
06:35PM 38.1411 -86.4106 North 420 483 37,000  Level Indianapolis Center
06:36PM 38.2567 -86.4081 North 417 480 37,000  Level Indianapolis Center
06:37PM 38.3725 -86.4047 North 417 480 37,000  Level Indianapolis Center
06:38PM 38.4878 -86.4028 North 415 478 37,000  Level Indianapolis Center
06:39PM 38.6256 -86.3975 North 413 475 37,000  Level Indianapolis Center
06:40PM 38.7392 -86.3953 North 409 471 37,000  Level Indianapolis Center
06:41PM 38.8525 -86.3925 North 407 468 37,000  Level Indianapolis Center
06:42PM 38.9742 -86.3889 North 408 470 37,000  Level Indianapolis Center
06:43PM 39.0872 -86.3708 North 414 476 37,000 -420 Level Indianapolis Center
06:44PM 39.2561 -86.2647 26° Northeast 427 491 35,900 -780 Descending Chicago Center
06:45PM 39.3000 -86.2364 27° Northeast 427 491 35,500 -960 Descending Indianapolis Center
06:46PM 39.4075 -86.1697 26° Northeast 430 495 34,600 -960 Descending Indianapolis Center
06:47PM 39.5325 -86.0903 26° Northeast 423 487 33,600 -1,200 Descending Indianapolis Center
06:48PM 39.6356 -86.0256 26° Northeast 418 481 32,200 -1,260 Descending Indianapolis Center
06:49PM 39.7444 -85.9575 26° Northeast 438 504 31,000 -600 Descending Indianapolis Center
06:50PM 39.8586 -85.8886 25° Northeast 455 524 31,000  Level Indianapolis Center
06:51PM 39.9703 -85.8200 25° Northeast 450 518 31,000  Level Indianapolis Center
06:52PM 40.1053 -85.7369 25° Northeast 450 518 31,000  Level Indianapolis Center
06:53PM 40.2181 -85.6681 25° Northeast 449 517 31,000  Level Indianapolis Center
06:54PM 40.3292 -85.5983 26° Northeast 445 512 31,000  Level Indianapolis Center
06:55PM 40.4192 -85.5408 26° Northeast 447 514 31,000  Level Chicago Center
06:56PM 40.5308 -85.4725 25° Northeast 445 512 31,000 -480 Level Chicago Center
06:57PM 40.6417 -85.4014 26° Northeast 445 512 30,100 -2,520 Descending Chicago Center
06:58PM 40.7619 -85.3236 26° Northeast 449 517 25,900 -2,940 Descending Chicago Center
06:59PM 40.8719 -85.2492 27° Northeast 447 514 24,100 -1,500 Descending Chicago Center
07:00PM 40.9781 -85.1831 25° Northeast 429 494 22,800 -1,020 Descending Chicago Center
07:01PM 41.0750 -85.0842 38° Northeast 440 506 22,100 -600 Descending Chicago Center
07:02PM 41.1844 -84.9633 40° Northeast 433 498 21,600 -540 Descending Chicago Center
07:03PM 41.2756 -84.8683 38° Northeast 421 484 21,000 -300 Descending Chicago Center
07:04PM 41.3653 -84.7725 39° Northeast 419 482 21,000  Level Chicago Center
07:05PM 41.4558 -84.6747 39° Northeast 422 486 21,000 -180 Level Chicago Center
07:06PM 41.5472 -84.5761 39° Northeast 425 489 20,700 -1,560 Descending Chicago Center
07:07PM 41.6436 -84.4736 38° Northeast 416 479 17,900 -3,240 Descending Cleveland Center
07:08PM 41.6789 -84.4172 50° Northeast 417 480 16,300 -2,700 Descending Cleveland Center
07:08PM 41.7103 -84.3497 58° Northeast 403 464 15,200 -2,100 Descending Cleveland Center
07:09PM 41.7542 -84.2214 65° Northeast 389 448 12,900 -1,620 Descending Cleveland Center
07:10PM 41.7972 -84.1094 63° Northeast 355 409 12,000 -660 Descending Cleveland Center
07:11PM 41.8397 -84.0172 58° Northeast 317 365 11,600 -720 Descending Cleveland Center
07:11PM 41.8572 -83.9875 52° Northeast 290 334 11,100 -1,320 Descending Cleveland Center
07:12PM 41.8719 -83.9183 74° East 297 342 10,300 -1,260 Descending Cleveland Center
07:13PM 41.8897 -83.8775 60° Northeast 279 321 9,700 -1,440 Descending Cleveland Center
07:13PM 41.9100 -83.8256 62° Northeast 280 322 8,900 -1,500 Descending Cleveland Center
07:14PM 41.9297 -83.7847 57° Northeast 275 316 8,200 -1,440 Descending Cleveland Center
07:14PM 41.9458 -83.7381 65° Northeast 274 315 7,500 -1,260 Descending Cleveland Center
07:15PM 41.9658 -83.6942 58° Northeast 272 313 6,900 -1,320 Descending Cleveland Center
07:15PM 41.9856 -83.6533 57° Northeast 268 308 6,200 -1,200 Descending Cleveland Center
07:16PM 42.0011 -83.6150 61° Northeast 267 307 5,800 -1,320 Descending Cleveland Center
07:16PM 42.0233 -83.5656 59° Northeast 263 303 4,900 -1,560 Descending Cleveland Center
07:17PM 42.0514 -83.5333 40° Northeast 249 287 4,100 -2,040 Descending Cleveland Center